Time;durP1;ratioP1;P1;durP2;ratioP2;P2;SDS_P1;SDS_P2;PMS_P1;PMS_P2;Temp;Humidity;BMP_temperature;BMP_pressure;BME280_temperature;BME280_humidity;BME280_pressure;Samples;Min_cycle;Max_cycle;Signal;HPM_P1;HPM_P2
2022/05/12 00:00:48;;;;;;;;;16.75;15.00;;;26.54;97949.84;;;;117089;1193;25015;-59
2022/05/12 00:03:17;;;;;;;;;11.00;11.00;;;26.55;97951.05;;;;117066;1192;25208;-57
2022/05/12 00:05:47;;;;;;;;;16.25;15.00;;;26.52;97949.90;;;;117055;1193;25920;-57
2022/05/12 00:08:15;;;;;;;;;13.75;13.25;;;26.50;97954.41;;;;117112;1192;25212;-57
2022/05/12 00:10:44;;;;;;;;;13.50;12.75;;;26.48;97951.13;;;;117116;1193;25550;-58
2022/05/12 00:13:14;;;;;;;;;19.33;12.00;;;26.48;97952.84;;;;117003;1193;24906;-57
2022/05/12 00:15:45;;;;;;;;;16.67;12.33;;;26.48;97949.16;;;;117035;1193;25706;-57
2022/05/12 00:18:17;;;;;;;;;15.67;13.00;;;26.48;97947.73;;;;117087;1193;25292;-58
2022/05/12 00:20:47;;;;;;;;;15.75;13.50;;;26.49;97946.23;;;;117088;1192;25105;-58
2022/05/12 00:23:20;;;;;;;;;14.50;10.75;;;26.50;97944.94;;;;116985;1193;25345;-57
2022/05/12 00:25:50;;;;;;;;;11.50;10.00;;;26.48;97947.98;;;;117082;1192;25169;-58
2022/05/12 00:28:22;;;;;;;;;13.75;13.75;;;26.50;97948.73;;;;117068;1193;25404;-58
2022/05/12 00:30:57;;;;;;;;;8.00;8.00;;;26.50;97945.71;;;;117090;1193;25460;-56
2022/05/12 00:33:27;;;;;;;;;14.50;11.50;;;26.50;97943.65;;;;117037;1193;24869;-57
2022/05/12 00:35:56;;;;;;;;;11.50;11.50;;;26.49;97940.73;;;;117066;1193;25048;-58
2022/05/12 00:38:27;;;;;;;;;11.50;11.50;;;26.49;97942.71;;;;117019;1193;25281;-57
2022/05/12 00:40:55;;;;;;;;;12.00;11.33;;;26.48;97941.83;;;;117088;1193;25478;-58
2022/05/12 00:43:36;;;;;;;;;12.50;11.00;;;26.46;97942.40;;;;117061;1193;25430;-57
2022/05/12 00:46:07;;;;;;;;;11.00;10.50;;;26.45;97942.00;;;;117120;1192;25382;-57
2022/05/12 00:48:35;;;;;;;;;14.25;12.25;;;26.48;97941.75;;;;117152;1193;25025;-57
2022/05/12 00:51:06;;;;;;;;;13.00;10.50;;;26.48;97941.13;;;;117039;1193;25593;-57
2022/05/12 00:53:38;;;;;;;;;13.00;12.33;;;26.45;97942.21;;;;117130;1193;24844;-57
2022/05/12 00:56:10;;;;;;;;;10.75;10.75;;;26.45;97940.67;;;;117012;1193;24790;-56
2022/05/12 00:58:38;;;;;;;;;12.50;10.00;;;26.43;97942.41;;;;116992;1193;24808;-59
2022/05/12 01:01:10;;;;;;;;;13.75;12.00;;;26.42;97946.39;;;;117058;1194;25618;-57
2022/05/12 01:03:42;;;;;;;;;16.00;15.00;;;26.42;97946.55;;;;117052;1193;25488;-58
2022/05/12 01:06:14;;;;;;;;;7.33;7.33;;;26.43;97945.86;;;;117111;1193;24952;-57
2022/05/12 01:08:43;;;;;;;;;11.50;9.00;;;26.44;97947.50;;;;117052;1193;25479;-59
2022/05/12 01:11:17;;;;;;;;;13.50;10.75;;;26.43;97947.66;;;;117104;1193;25491;-58
2022/05/12 01:13:50;;;;;;;;;13.50;12.00;;;26.41;97944.19;;;;117065;1192;25243;-56
2022/05/12 01:16:47;;;;;;;;;12.00;10.67;;;26.43;97945.09;;;;117065;1193;25027;-57
2022/05/12 01:19:18;;;;;;;;;12.50;12.50;;;26.46;97943.44;;;;117032;1193;25725;-57
2022/05/12 01:21:49;;;;;;;;;13.25;10.00;;;26.45;97943.66;;;;117078;1193;24925;-58
2022/05/12 01:24:19;;;;;;;;;14.75;11.75;;;26.43;97945.64;;;;117080;1193;24744;-58
2022/05/12 01:26:49;;;;;;;;;12.25;10.50;;;26.42;97942.75;;;;117077;1192;24785;-59
2022/05/12 01:29:18;;;;;;;;;13.00;10.50;;;26.40;97942.01;;;;117067;1193;25299;-58
2022/05/12 01:31:46;;;;;;;;;13.00;11.00;;;26.41;97937.91;;;;117129;1193;25330;-57
2022/05/12 01:34:16;;;;;;;;;13.25;11.25;;;26.41;97935.10;;;;117099;1193;25178;-58
2022/05/12 01:36:44;;;;;;;;;10.50;7.75;;;26.39;97939.15;;;;117134;1193;25635;-58
2022/05/12 01:39:15;;;;;;;;;12.00;10.25;;;26.38;97943.27;;;;117033;1192;25326;-58
2022/05/12 01:41:44;;;;;;;;;10.75;10.00;;;26.36;97947.73;;;;117028;1193;25163;-58
2022/05/12 01:44:13;;;;;;;;;16.50;15.25;;;26.34;97950.77;;;;117078;1192;25349;-57
2022/05/12 01:46:42;;;;;;;;;11.00;10.25;;;26.33;97948.17;;;;117122;1193;25350;-57
2022/05/12 01:49:10;;;;;;;;;11.25;11.25;;;26.34;97948.72;;;;117035;1193;25547;-58
2022/05/12 01:51:38;;;;;;;;;16.50;10.75;;;26.31;97949.61;;;;117054;1193;24852;-58
2022/05/12 01:54:09;;;;;;;;;13.33;12.33;;;26.30;97949.94;;;;117083;1193;25388;-58
2022/05/12 01:56:39;;;;;;;;;8.33;8.00;;;26.30;97952.95;;;;117144;1193;24799;-58
2022/05/12 01:59:05;;;;;;;;;11.50;11.00;;;26.32;97956.23;;;;117039;1193;25577;-57
2022/05/12 02:01:33;;;;;;;;;8.00;8.00;;;26.29;97953.81;;;;117016;1193;25537;-57
2022/05/12 02:04:05;;;;;;;;;8.67;8.67;;;26.28;97955.17;;;;117088;1192;24726;-58
2022/05/12 02:06:36;;;;;;;;;14.00;11.33;;;26.28;97955.09;;;;117124;1193;25260;-58
2022/05/12 02:09:07;;;;;;;;;11.33;10.00;;;26.30;97958.14;;;;117024;1193;25693;-58
2022/05/12 02:11:35;;;;;;;;;11.00;11.00;;;26.30;97957.88;;;;117160;1193;25230;-58
2022/05/12 02:14:07;;;;;;;;;11.00;11.00;;;26.30;97957.61;;;;117067;1193;25659;-57
2022/05/12 02:16:38;;;;;;;;;10.33;10.33;;;26.29;97955.29;;;;117015;1193;24906;-57
2022/05/12 02:19:06;;;;;;;;;11.33;11.33;;;26.27;97956.86;;;;117025;1193;25326;-58
2022/05/12 02:21:35;;;;;;;;;13.25;10.75;;;26.27;97954.68;;;;117122;1193;25408;-58
2022/05/12 02:24:05;;;;;;;;;14.25;13.50;;;26.27;97957.75;;;;117111;1193;25222;-58
2022/05/12 02:26:34;;;;;;;;;13.50;12.00;;;26.27;97955.83;;;;117074;1191;25554;-58
2022/05/12 02:29:04;;;;;;;;;15.50;13.00;;;26.25;97959.23;;;;117084;1193;25126;-58
2022/05/12 02:31:31;;;;;;;;;12.00;10.00;;;26.26;97960.95;;;;117073;1191;25610;-58
2022/05/12 02:34:00;;;;;;;;;11.00;9.00;;;26.26;97961.56;;;;117108;1193;24875;-57
2022/05/12 02:36:30;;;;;;;;;12.00;11.75;;;26.24;97965.63;;;;117021;1192;25681;-57
2022/05/12 02:39:01;;;;;;;;;11.00;9.33;;;26.24;97966.61;;;;117039;1193;24912;-57
2022/05/12 02:41:32;;;;;;;;;10.00;9.50;;;26.25;97969.87;;;;117014;1193;25264;-58
2022/05/12 02:44:01;;;;;;;;;13.00;10.00;;;26.24;97971.19;;;;117024;1193;25200;-59
2022/05/12 02:46:29;;;;;;;;;11.00;11.00;;;26.25;97975.19;;;;117059;1192;25668;-58
2022/05/12 02:49:01;;;;;;;;;13.75;9.50;;;26.23;97974.83;;;;117198;1193;24778;-59
2022/05/12 02:51:32;;;;;;;;;12.33;12.33;;;26.26;97973.29;;;;117054;1193;25376;-58
2022/05/12 02:54:03;;;;;;;;;11.75;10.75;;;26.24;97979.10;;;;117086;1193;25693;-58
2022/05/12 02:56:33;;;;;;;;;8.33;8.33;;;26.25;97981.34;;;;117060;1193;25123;-55
2022/05/12 02:59:07;;;;;;;;;8.67;8.67;;;26.22;97979.77;;;;117046;1193;25075;-56
2022/05/12 03:01:38;;;;;;;;;14.00;12.75;;;26.22;97979.91;;;;117052;1192;25511;-57
2022/05/12 03:04:08;;;;;;;;;13.00;11.75;;;26.21;97978.47;;;;117013;1193;25656;-59
2022/05/12 03:06:37;;;;;;;;;14.67;12.00;;;26.20;97978.61;;;;117062;1193;26400;-57
2022/05/12 03:09:06;;;;;;;;;14.00;11.00;;;26.18;97979.72;;;;117170;1193;26350;-58
2022/05/12 03:11:34;;;;;;;;;13.75;11.75;;;26.18;97981.76;;;;117075;1193;25173;-57
2022/05/12 03:14:03;;;;;;;;;11.75;10.50;;;26.19;97982.59;;;;117061;1193;25727;-58
2022/05/12 03:16:31;;;;;;;;;16.50;14.00;;;26.16;97984.36;;;;116995;1193;25487;-57
2022/05/12 03:19:00;;;;;;;;;9.00;9.00;;;26.16;97986.96;;;;117136;1193;25439;-58
2022/05/12 03:21:29;;;;;;;;;9.50;9.50;;;26.16;97988.00;;;;117094;1193;25466;-58
2022/05/12 03:24:01;;;;;;;;;11.00;10.50;;;26.15;97992.91;;;;117105;1192;25453;-58
2022/05/12 03:26:30;;;;;;;;;9.00;8.33;;;26.14;97996.11;;;;117049;1193;24880;-57
2022/05/12 03:28:57;;;;;;;;;10.00;8.00;;;26.13;97999.09;;;;117041;1193;25251;-57
2022/05/12 03:31:26;;;;;;;;;12.67;11.67;;;26.14;97997.82;;;;117106;1193;24687;-58
2022/05/12 03:33:54;;;;;;;;;10.33;9.00;;;26.13;97999.82;;;;117029;1193;24720;-58
2022/05/12 03:36:22;;;;;;;;;11.67;9.00;;;26.11;98001.77;;;;117116;1193;25050;-58
2022/05/12 03:38:51;;;;;;;;;18.25;10.50;;;26.12;98003.00;;;;117181;1192;25357;-58
2022/05/12 03:41:19;;;;;;;;;8.50;8.50;;;26.14;98006.27;;;;117050;1193;24855;-58
2022/05/12 03:46:34;;;;;;;;;12.00;12.00;;;26.10;98011.11;;;;117022;1193;25477;-58
2022/05/12 03:49:03;;;;;;;;;10.00;9.75;;;26.08;98012.05;;;;117025;1193;25245;-57
2022/05/12 03:51:31;;;;;;;;;12.75;11.25;;;26.09;98013.06;;;;117003;1193;24960;-58
2022/05/12 03:54:03;;;;;;;;;12.00;11.33;;;26.06;98011.05;;;;116988;1193;26470;-57
2022/05/12 03:56:34;;;;;;;;;11.25;8.75;;;26.06;98012.64;;;;116999;1193;24879;-57
2022/05/12 03:59:06;;;;;;;;;11.00;10.00;;;26.06;98011.90;;;;117065;1193;26484;-57
2022/05/12 04:01:34;;;;;;;;;13.33;11.67;;;26.08;98014.76;;;;117146;1193;24818;-58
2022/05/12 04:04:05;;;;;;;;;10.33;9.67;;;26.13;98015.51;;;;117037;1193;25160;-58
2022/05/12 04:06:37;;;;;;;;;10.67;10.33;;;26.12;98017.06;;;;117121;1193;24984;-58
2022/05/12 04:09:07;;;;;;;;;11.00;10.33;;;26.11;98016.57;;;;117104;1193;25436;-58
2022/05/12 04:11:39;;;;;;;;;6.75;6.75;;;26.10;98016.11;;;;116997;1194;25294;-59
2022/05/12 04:14:07;;;;;;;;;10.75;10.50;;;26.10;98016.83;;;;116963;1193;25604;-58
2022/05/12 04:16:36;;;;;;;;;12.25;11.00;;;26.08;98019.42;;;;117045;1193;24734;-59
2022/05/12 04:19:12;;;;;;;;;10.00;10.00;;;26.06;98019.30;;;;117057;1192;25431;-59
2022/05/12 04:21:42;;;;;;;;;9.00;9.00;;;26.08;98020.08;;;;117005;1193;25663;-57
2022/05/12 04:24:16;;;;;;;;;9.50;8.00;;;26.17;98021.66;;;;117053;1191;25683;-58
2022/05/12 04:26:48;;;;;;;;;12.50;9.75;;;26.18;98023.52;;;;117068;1193;25680;-57
2022/05/12 04:29:21;;;;;;;;;11.00;9.00;;;26.18;98023.80;;;;117149;1193;25641;-58
2022/05/12 04:31:54;;;;;;;;;11.33;10.67;;;26.28;98023.38;;;;117137;1193;25124;-57
2022/05/12 04:37:30;;;;;;;;;13.75;11.25;;;26.29;98020.35;;;;117048;1192;25664;-58
2022/05/12 04:40:13;;;;;;;;;10.00;9.00;;;26.25;98021.23;;;;117046;1193;25303;-57
2022/05/12 04:42:44;;;;;;;;;13.25;11.50;;;26.23;98022.06;;;;117124;1193;25152;-59
2022/05/12 04:45:15;;;;;;;;;12.00;12.00;;;26.27;98023.27;;;;117111;1192;26278;-58
2022/05/12 04:47:46;;;;;;;;;12.67;11.67;;;26.24;98028.16;;;;117226;1194;25635;-57
2022/05/12 04:50:30;;;;;;;;;10.25;8.50;;;26.29;98023.09;;;;117036;1193;26711;-58
2022/05/12 04:52:59;;;;;;;;;12.67;12.00;;;26.29;98023.50;;;;117110;1193;24796;-57
2022/05/12 04:55:28;;;;;;;;;13.67;10.00;;;26.26;98022.75;;;;117176;1193;25728;-59
2022/05/12 04:58:00;;;;;;;;;12.00;11.25;;;26.26;98021.42;;;;117081;1193;25442;-60
2022/05/12 05:00:37;;;;;;;;;9.67;8.33;;;26.30;98020.77;;;;117116;1193;25069;-58
2022/05/12 05:03:05;;;;;;;;;33.75;25.75;;;26.33;98025.27;;;;117131;1192;24946;-59
2022/05/12 05:05:34;;;;;;;;;20.00;16.67;;;26.32;98026.19;;;;117047;1193;25727;-58
2022/05/12 05:08:03;;;;;;;;;18.67;13.67;;;26.26;98028.98;;;;117165;1193;25249;-58
2022/05/12 05:10:32;;;;;;;;;39.00;32.50;;;26.20;98027.36;;;;117070;1193;25628;-58
2022/05/12 05:13:00;;;;;;;;;68.00;50.00;;;26.19;98028.67;;;;117238;1193;24772;-58
2022/05/12 05:15:31;;;;;;;;;80.33;57.67;;;26.29;98026.92;;;;117237;1193;25590;-57
2022/05/12 05:18:24;;;;;;;;;42.67;31.33;;;26.24;98033.59;;;;117227;1192;24794;-58
2022/05/12 05:20:53;;;;;;;;;25.75;22.50;;;25.74;98033.53;;;;117375;1192;24960;-58
2022/05/12 05:23:23;;;;;;;;;21.00;19.00;;;25.38;98033.73;;;;117060;1193;25328;-58
2022/05/12 05:25:51;;;;;;;;;20.00;16.50;;;24.97;98030.09;;;;117092;1192;25457;-58
2022/05/12 05:28:24;;;;;;;;;32.00;25.00;;;24.89;98032.13;;;;117025;1192;25143;-58
2022/05/12 05:30:52;;;;;;;;;41.50;28.50;;;25.09;98033.11;;;;117135;1192;26248;-58
2022/05/12 05:33:21;;;;;;;;;40.00;30.00;;;25.25;98032.42;;;;117097;1192;25233;-56
2022/05/12 05:35:52;;;;;;;;;44.67;32.67;;;25.38;98032.85;;;;117132;1192;25419;-57
2022/05/12 05:38:24;;;;;;;;;48.67;35.33;;;25.49;98032.16;;;;117125;1193;25397;-57
2022/05/12 05:40:52;;;;;;;;;44.00;33.00;;;25.62;98033.27;;;;117237;1193;25272;-58
2022/05/12 05:43:21;;;;;;;;;40.67;29.00;;;25.67;98032.17;;;;117163;1193;24903;-56
2022/05/12 05:45:50;;;;;;;;;37.00;27.50;;;25.68;98032.36;;;;117173;1193;24893;-57
2022/05/12 05:48:18;;;;;;;;;47.00;33.50;;;25.76;98032.63;;;;117155;1193;24927;-58
2022/05/12 05:53:36;;;;;;;;;38.67;31.33;;;25.87;98036.21;;;;117142;1193;25307;-58
2022/05/12 05:56:08;;;;;;;;;37.67;29.33;;;25.90;98036.05;;;;117103;1193;25506;-58
2022/05/12 05:58:36;;;;;;;;;39.00;30.33;;;25.96;98035.09;;;;117152;1192;25655;-57
2022/05/12 06:01:04;;;;;;;;;38.67;27.67;;;25.96;98036.11;;;;117159;1193;25796;-58
2022/05/12 06:03:32;;;;;;;;;25.75;22.00;;;25.97;98034.89;;;;117173;1193;25310;-57
2022/05/12 06:06:06;;;;;;;;;32.00;22.67;;;25.98;98036.69;;;;117735;1193;25766;-58
2022/05/12 06:08:34;;;;;;;;;31.33;24.00;;;26.06;98032.05;;;;117727;1191;25498;-62
2022/05/12 06:11:04;;;;;;;;;30.50;23.50;;;26.35;98028.77;;;;117287;1193;25202;-62
2022/05/12 06:13:34;;;;;;;;;36.67;27.67;;;26.41;98026.84;;;;117167;1193;25201;-58
2022/05/12 06:16:04;;;;;;;;;23.00;18.50;;;26.41;98028.72;;;;117264;1192;25139;-56
2022/05/12 06:18:34;;;;;;;;;25.50;21.50;;;26.43;98030.73;;;;117235;1193;25505;-60
2022/05/12 06:21:04;;;;;;;;;20.00;18.00;;;26.51;98035.48;;;;117182;1193;25555;-69
2022/05/12 06:23:32;;;;;;;;;23.67;18.67;;;26.17;98036.88;;;;117111;1193;25343;-71
2022/05/12 06:26:02;;;;;;;;;34.00;27.33;;;26.01;98037.33;;;;117209;1194;25561;-71
2022/05/12 06:28:33;;;;;;;;;36.00;34.00;;;25.73;98032.73;;;;117291;1193;25414;-70
2022/05/12 06:31:05;;;;;;;;;29.67;26.00;;;25.68;98030.72;;;;117214;1191;25197;-70
2022/05/12 06:33:36;;;;;;;;;28.00;24.67;;;25.63;98030.77;;;;117159;1193;25448;-65
2022/05/12 06:36:07;;;;;;;;;28.67;22.67;;;25.53;98028.25;;;;117065;1193;25437;-62
2022/05/12 06:38:38;;;;;;;;;25.67;23.00;;;25.57;98029.04;;;;117108;1193;24830;-64
2022/05/12 06:41:06;;;;;;;;;28.33;24.00;;;25.42;98028.83;;;;117186;1192;25525;-62
2022/05/12 06:43:36;;;;;;;;;35.00;24.50;;;25.40;98026.16;;;;117141;1193;25247;-59
2022/05/12 06:46:04;;;;;;;;;25.67;23.67;;;25.32;98023.17;;;;117117;1193;25614;-61
2022/05/12 06:48:32;;;;;;;;;32.33;26.67;;;25.30;98024.66;;;;117145;1192;25311;-63
2022/05/12 06:51:00;;;;;;;;;31.67;29.00;;;25.30;98025.71;;;;117123;1192;24915;-60
2022/05/12 06:53:28;;;;;;;;;29.00;26.00;;;25.31;98025.98;;;;117157;1193;24848;-62
2022/05/12 06:55:56;;;;;;;;;31.00;28.50;;;25.28;98024.28;;;;117102;1191;24865;-59
2022/05/12 06:58:23;;;;;;;;;33.50;28.50;;;25.21;98023.42;;;;117615;1193;24733;-59
2022/05/12 07:00:51;;;;;;;;;31.50;25.00;;;25.38;98024.94;;;;117595;1193;24959;-59
2022/05/12 07:03:19;;;;;;;;;29.33;23.33;;;25.45;98025.48;;;;117705;1192;24872;-57
2022/05/12 07:05:47;;;;;;;;;27.00;24.00;;;25.64;98028.27;;;;117808;1193;25502;-58
2022/05/12 07:08:17;;;;;;;;;25.33;25.00;;;25.64;98027.29;;;;117766;1192;24936;-57
2022/05/12 07:10:49;;;;;;;;;27.50;23.50;;;25.75;98027.97;;;;117502;1193;25545;-58
2022/05/12 07:13:20;;;;;;;;;25.00;23.67;;;25.76;98026.76;;;;117409;1192;25479;-61
2022/05/12 07:15:50;;;;;;;;;26.00;21.67;;;25.86;98029.30;;;;117330;1193;25537;-62
2022/05/12 07:18:19;;;;;;;;;24.50;22.00;;;25.82;98026.34;;;;117585;1193;25417;-60
2022/05/12 07:26:41;;;;;;;;;22.00;19.00;;;26.00;98023.92;;;;117697;1193;25147;-65
2022/05/12 07:29:16;;;;;;;;;21.67;17.67;;;25.99;98022.78;;;;117635;1193;25265;-59
2022/05/12 07:31:48;;;;;;;;;16.67;16.00;;;25.99;98025.12;;;;117623;1193;25458;-60
2022/05/12 07:34:20;;;;;;;;;21.33;17.33;;;25.99;98026.02;;;;117495;1192;24947;-62
2022/05/12 07:36:52;;;;;;;;;21.33;19.00;;;25.93;98024.69;;;;118122;1193;24692;-58
2022/05/12 07:39:27;;;;;;;;;20.50;19.00;;;26.12;98023.96;;;;117323;1193;25087;-60
2022/05/12 07:42:01;;;;;;;;;25.67;24.33;;;26.09;98022.23;;;;118837;1193;25441;-61
2022/05/12 07:44:34;;;;;;;;;25.00;22.33;;;26.40;98023.25;;;;117549;1192;24867;-57
2022/05/12 07:47:05;;;;;;;;;20.00;17.00;;;26.38;98021.91;;;;117582;1192;25072;-59
2022/05/12 07:49:36;;;;;;;;;20.00;18.00;;;26.33;98019.16;;;;117478;1193;25351;-58
2022/05/12 07:52:06;;;;;;;;;20.50;17.50;;;26.33;98021.14;;;;117428;1193;24843;-62
2022/05/12 07:54:35;;;;;;;;;18.33;17.00;;;26.21;98021.73;;;;117600;1193;25583;-59
2022/05/12 07:57:04;;;;;;;;;20.33;17.33;;;26.25;98014.82;;;;117610;1193;25614;-58
2022/05/12 07:59:38;;;;;;;;;21.75;20.00;;;26.20;98012.70;;;;117451;1193;24842;-59
2022/05/12 08:02:06;;;;;;;;;20.00;18.00;;;26.24;98011.73;;;;117581;1192;24834;-59
2022/05/12 08:04:37;;;;;;;;;21.33;21.33;;;26.22;98011.75;;;;117479;1193;25002;-54
2022/05/12 08:07:05;;;;;;;;;26.00;22.33;;;26.24;98016.20;;;;118492;1193;25371;-56
2022/05/12 08:09:33;;;;;;;;;21.33;17.67;;;26.65;98020.37;;;;117634;1191;25411;-54
2022/05/12 08:12:01;;;;;;;;;21.25;17.00;;;26.64;98020.67;;;;117572;1193;25370;-58
2022/05/12 08:14:29;;;;;;;;;23.67;22.33;;;26.57;98019.30;;;;117560;1192;24824;-57
2022/05/12 08:16:57;;;;;;;;;21.50;16.25;;;26.50;98017.27;;;;117459;1191;25569;-56
2022/05/12 08:19:25;;;;;;;;;21.67;19.67;;;26.53;98017.64;;;;117565;1192;24981;-56
2022/05/12 08:21:52;;;;;;;;;19.00;16.75;;;26.58;98019.06;;;;117774;1192;25111;-56
2022/05/12 08:24:20;;;;;;;;;19.25;17.50;;;26.58;98017.34;;;;117561;1193;25703;-56
2022/05/12 08:26:48;;;;;;;;;21.00;16.75;;;26.62;98019.33;;;;117650;1191;25421;-57
2022/05/12 08:29:16;;;;;;;;;20.33;17.33;;;26.67;98015.94;;;;117717;1192;25589;-57
2022/05/12 08:31:43;;;;;;;;;20.00;20.00;;;26.73;98013.54;;;;117462;1193;24806;-56
2022/05/12 08:34:11;;;;;;;;;16.67;16.33;;;26.73;98011.75;;;;117625;1193;25149;-58
2022/05/12 08:36:39;;;;;;;;;23.50;20.50;;;26.78;98010.48;;;;117525;1193;25275;-57
2022/05/12 08:39:07;;;;;;;;;17.33;14.00;;;26.74;98006.22;;;;117765;1193;25381;-61
2022/05/12 08:41:40;;;;;;;;;19.33;15.67;;;26.82;98002.91;;;;117585;1192;25218;-57
2022/05/12 08:44:19;;;;;;;;;10.50;7.50;;;26.89;98001.30;;;;117581;1193;25214;-57
2022/05/12 08:46:54;;;;;;;;;22.75;15.25;;;26.98;97996.90;;;;117615;1192;26462;-56
2022/05/12 08:49:32;;;;;;;;;22.33;17.33;;;27.07;97990.08;;;;117561;1193;25262;-56
2022/05/12 08:52:27;;;;;;;;;15.25;13.75;;;27.10;97993.66;;;;117613;1193;24867;-60
2022/05/12 08:55:18;;;;;;;;;17.50;16.25;;;27.26;97988.94;;;;117467;1192;25634;-59
2022/05/12 08:58:02;;;;;;;;;22.75;17.25;;;27.23;97990.52;;;;117703;1193;25099;-57
2022/05/12 09:00:44;;;;;;;;;17.33;17.00;;;27.28;97989.81;;;;117336;1192;26006;-61
2022/05/12 09:03:23;;;;;;;;;22.50;15.00;;;27.33;97986.23;;;;117614;1193;25767;-64
2022/05/12 09:06:14;;;;;;;;;18.67;16.67;;;27.29;97986.33;;;;117264;1193;26513;-57
2022/05/12 09:09:09;;;;;;;;;21.25;14.75;;;27.26;97989.83;;;;117725;1193;24899;-58
2022/05/12 09:11:45;;;;;;;;;19.75;17.25;;;27.40;97991.32;;;;118046;1193;25667;-58
2022/05/12 09:14:23;;;;;;;;;18.75;16.00;;;27.46;97989.94;;;;117574;1193;24902;-59
2022/05/12 09:16:53;;;;;;;;;18.33;15.33;;;27.35;97989.86;;;;117639;1193;24783;-59
2022/05/12 09:19:22;;;;;;;;;9.50;9.50;;;27.36;97990.41;;;;117658;1193;25453;-59
2022/05/12 09:21:51;;;;;;;;;16.00;14.00;;;27.30;97985.21;;;;117503;1193;24955;-59
2022/05/12 09:24:20;;;;;;;;;21.50;15.25;;;27.31;97984.45;;;;117647;1193;25023;-59
2022/05/12 09:26:49;;;;;;;;;18.00;16.67;;;27.28;97984.64;;;;117631;1193;24851;-59
2022/05/12 09:29:27;;;;;;;;;17.33;15.00;;;27.30;97986.10;;;;117795;1193;25855;-59
2022/05/12 09:32:07;;;;;;;;;15.67;15.00;;;27.38;97990.89;;;;117510;1193;24823;-61
2022/05/12 09:34:51;;;;;;;;;19.50;15.25;;;27.46;97985.69;;;;117743;1192;24759;-57
2022/05/12 09:37:21;;;;;;;;;14.00;13.33;;;27.52;97983.48;;;;117578;1193;24981;-55
2022/05/12 09:40:13;;;;;;;;;16.00;15.00;;;27.51;97981.30;;;;117556;1191;25370;-56
2022/05/12 09:42:49;;;;;;;;;15.50;14.00;;;27.54;97977.73;;;;118275;1191;25796;-59
2022/05/12 09:45:29;;;;;;;;;19.50;16.75;;;27.75;97974.99;;;;118586;1193;25742;-57
2022/05/12 09:48:19;;;;;;;;;16.00;11.00;;;27.99;97975.20;;;;117788;1193;24845;-59
2022/05/12 09:50:48;;;;;;;;;16.75;16.75;;;27.97;97977.77;;;;117510;1193;25547;-55
2022/05/12 09:53:30;;;;;;;;;14.25;10.25;;;27.86;97976.89;;;;117631;1193;25651;-56
2022/05/12 09:56:32;;;;;;;;;16.25;15.50;;;27.89;97972.77;;;;117551;1193;26185;-56
2022/05/12 09:59:16;;;;;;;;;16.67;16.00;;;27.86;97973.02;;;;117535;1193;25196;-56
2022/05/12 10:01:53;;;;;;;;;21.50;17.50;;;27.91;97972.20;;;;117403;1193;25497;-57
2022/05/12 10:10:21;;;;;;;;;17.25;15.50;;;27.78;97966.66;;;;117713;1193;25608;-57
2022/05/12 10:13:01;;;;;;;;;13.75;12.00;;;27.82;97963.43;;;;117759;1192;25708;-60
2022/05/12 10:15:31;;;;;;;;;12.25;11.00;;;27.87;97964.55;;;;117664;1192;25240;-58
2022/05/12 10:18:17;;;;;;;;;18.50;14.50;;;27.88;97964.46;;;;117761;1193;25213;-59
2022/05/12 10:20:48;;;;;;;;;15.00;13.67;;;27.95;97966.47;;;;117575;1192;26140;-58
2022/05/12 10:23:37;;;;;;;;;16.00;14.00;;;27.92;97965.13;;;;117588;1193;25219;-58
2022/05/12 10:26:12;;;;;;;;;15.00;13.00;;;27.95;97961.86;;;;117543;1193;25588;-59
2022/05/12 10:28:53;;;;;;;;;17.00;16.00;;;27.94;97965.75;;;;117708;1193;25117;-57
2022/05/12 10:31:21;;;;;;;;;20.25;15.00;;;27.95;97958.11;;;;117482;1192;25495;-58
2022/05/12 10:34:08;;;;;;;;;15.00;14.75;;;28.01;97955.39;;;;117483;1192;24863;-57
2022/05/12 10:36:41;;;;;;;;;16.50;14.25;;;27.88;97959.83;;;;117818;1193;24865;-57
2022/05/12 10:39:14;;;;;;;;;16.75;14.00;;;27.92;97952.88;;;;117491;1193;25196;-56
2022/05/12 10:42:02;;;;;;;;;14.50;13.00;;;27.87;97953.93;;;;117676;1192;25492;-56
2022/05/12 10:44:45;;;;;;;;;14.25;11.00;;;27.91;97947.73;;;;117545;1193;25058;-56
2022/05/12 10:47:45;;;;;;;;;11.75;11.25;;;27.88;97942.33;;;;117730;1193;24933;-56
2022/05/12 10:50:13;;;;;;;;;15.50;12.50;;;27.96;97945.23;;;;117684;1193;25087;-58
2022/05/12 10:53:03;;;;;;;;;17.50;14.00;;;27.94;97943.39;;;;117577;1192;24762;-58
2022/05/12 10:55:31;;;;;;;;;11.00;11.00;;;27.91;97940.02;;;;117567;1193;25696;-55
2022/05/12 10:58:26;;;;;;;;;12.50;9.50;;;27.88;97934.70;;;;117586;1193;24921;-59
2022/05/12 11:01:20;;;;;;;;;16.75;13.75;;;27.89;97930.85;;;;117550;1193;25488;-57
2022/05/12 11:04:00;;;;;;;;;17.67;11.67;;;27.88;97925.19;;;;117291;1193;25165;-57
2022/05/12 11:06:34;;;;;;;;;16.67;15.00;;;27.83;97923.08;;;;117689;1193;26139;-57
2022/05/12 11:09:09;;;;;;;;;15.00;9.67;;;27.84;97919.13;;;;117405;1193;25645;-57
2022/05/12 11:11:40;;;;;;;;;15.00;13.25;;;27.79;97914.56;;;;117480;1191;25064;-58
2022/05/12 11:14:17;;;;;;;;;15.25;11.50;;;27.78;97909.92;;;;117652;1191;25347;-56
2022/05/12 11:17:00;;;;;;;;;15.00;13.00;;;27.81;97907.48;;;;117741;1193;24865;-57
2022/05/12 11:19:28;;;;;;;;;15.00;13.25;;;27.88;97904.26;;;;117622;1192;25044;-57
2022/05/12 11:22:17;;;;;;;;;20.67;15.67;;;27.91;97900.13;;;;117549;1193;25641;-57
2022/05/12 11:24:47;;;;;;;;;12.00;9.25;;;27.87;97895.20;;;;117683;1192;24983;-57
2022/05/12 11:27:31;;;;;;;;;12.50;12.50;;;27.89;97894.42;;;;117818;1192;25288;-57
2022/05/12 11:30:23;;;;;;;;;9.50;9.50;;;27.96;97895.56;;;;117726;1193;24867;-57
2022/05/12 11:33:09;;;;;;;;;13.00;12.25;;;28.01;97893.40;;;;117579;1192;25697;-57
2022/05/12 11:35:47;;;;;;;;;14.00;14.00;;;28.00;97889.86;;;;117866;1193;24951;-57
2022/05/12 11:38:52;;;;;;;;;17.00;13.67;;;28.03;97888.58;;;;117649;1191;25646;-58
2022/05/12 11:41:20;;;;;;;;;13.50;12.00;;;28.09;97884.82;;;;117046;1197;25096;-57
2022/05/12 11:47:03;;;;;;;;;16.33;14.33;;;28.00;97880.67;;;;117677;1192;25623;-56
2022/05/12 11:49:42;;;;;;;;;11.00;11.00;;;28.08;97879.52;;;;117569;1193;25628;-57
2022/05/12 11:52:28;;;;;;;;;15.50;12.00;;;28.13;97874.71;;;;117688;1192;25316;-57
2022/05/12 11:55:26;;;;;;;;;15.50;14.50;;;28.12;97875.63;;;;117779;1193;25488;-57
2022/05/12 11:57:58;;;;;;;;;15.75;14.50;;;28.20;97873.02;;;;117591;1193;25008;-56
2022/05/12 12:00:34;;;;;;;;;16.00;11.75;;;28.16;97872.04;;;;117860;1193;25474;-56
2022/05/12 12:03:27;;;;;;;;;14.50;12.00;;;28.18;97872.55;;;;117555;1193;24781;-57
2022/05/12 12:05:58;;;;;;;;;10.67;10.67;;;28.15;97869.46;;;;117517;1193;25195;-57
2022/05/12 12:08:32;;;;;;;;;11.00;10.75;;;28.13;97862.60;;;;117568;1193;25399;-57
2022/05/12 12:11:12;;;;;;;;;11.25;10.50;;;28.08;97860.48;;;;117494;1192;25309;-56
2022/05/12 12:13:48;;;;;;;;;11.75;11.00;;;28.03;97854.90;;;;117470;1193;24832;-56
2022/05/12 12:16:19;;;;;;;;;10.25;9.75;;;28.07;97851.35;;;;117558;1191;25271;-57
2022/05/12 12:18:53;;;;;;;;;12.00;12.00;;;28.08;97846.40;;;;117429;1193;24932;-57
2022/05/12 12:21:41;;;;;;;;;10.00;10.00;;;28.05;97842.11;;;;117483;1193;25761;-56
2022/05/12 12:24:18;;;;;;;;;13.50;13.25;;;28.15;97839.73;;;;117727;1192;25053;-65
2022/05/12 12:26:55;;;;;;;;;12.67;12.00;;;28.21;97833.86;;;;117699;1191;25478;-63
2022/05/12 12:29:44;;;;;;;;;12.50;10.75;;;28.21;97830.70;;;;117799;1192;25272;-59
2022/05/12 12:32:29;;;;;;;;;12.50;12.50;;;28.34;97829.98;;;;117845;1191;24965;-56
2022/05/12 12:35:09;;;;;;;;;13.00;13.00;;;28.41;97828.97;;;;117728;1193;25039;-57
2022/05/12 12:37:49;;;;;;;;;15.75;15.75;;;28.48;97830.58;;;;117642;1193;25053;-54
2022/05/12 12:40:45;;;;;;;;;18.25;15.50;;;28.44;97827.44;;;;117756;1193;25270;-58
2022/05/12 12:43:24;;;;;;;;;16.33;14.67;;;28.55;97826.02;;;;117478;1192;24981;-59